sensor_id;sensor_type;location;lat;lon;timestamp;temperature;humidity
975;DHT22;6115;49.296;10.602;2023-05-07T00:02:10;11.80;66.60
975;DHT22;6115;49.296;10.602;2023-05-07T00:07:11;11.80;67.00
975;DHT22;6115;49.296;10.602;2023-05-07T00:12:11;11.70;67.50
975;DHT22;6115;49.296;10.602;2023-05-07T00:17:12;11.60;67.90
975;DHT22;6115;49.296;10.602;2023-05-07T00:22:12;11.60;68.00
975;DHT22;6115;49.296;10.602;2023-05-07T00:27:13;11.50;68.40
975;DHT22;6115;49.296;10.602;2023-05-07T00:32:13;11.50;68.00
975;DHT22;6115;49.296;10.602;2023-05-07T00:37:14;11.60;68.20
975;DHT22;6115;49.296;10.602;2023-05-07T00:42:14;11.70;68.00
975;DHT22;6115;49.296;10.602;2023-05-07T00:47:16;11.60;68.70
975;DHT22;6115;49.296;10.602;2023-05-07T00:52:17;11.60;69.20
975;DHT22;6115;49.296;10.602;2023-05-07T00:57:20;11.50;69.30
975;DHT22;6115;49.296;10.602;2023-05-07T01:02:21;11.50;69.40
975;DHT22;6115;49.296;10.602;2023-05-07T01:07:23;11.40;70.10
975;DHT22;6115;49.296;10.602;2023-05-07T01:12:24;11.50;70.10
975;DHT22;6115;49.296;10.602;2023-05-07T01:17:25;11.50;69.50
975;DHT22;6115;49.296;10.602;2023-05-07T01:22:37;11.60;68.90
975;DHT22;6115;49.296;10.602;2023-05-07T01:27:37;11.60;68.80
975;DHT22;6115;49.296;10.602;2023-05-07T01:32:43;11.60;68.40
975;DHT22;6115;49.296;10.602;2023-05-07T01:37:46;11.60;68.40
975;DHT22;6115;49.296;10.602;2023-05-07T01:42:47;11.60;68.50
975;DHT22;6115;49.296;10.602;2023-05-07T01:47:51;11.50;68.80
975;DHT22;6115;49.296;10.602;2023-05-07T01:52:53;11.50;68.90
975;DHT22;6115;49.296;10.602;2023-05-07T01:57:53;11.40;69.30
975;DHT22;6115;49.296;10.602;2023-05-07T02:02:54;11.50;69.30
975;DHT22;6115;49.296;10.602;2023-05-07T02:07:55;11.30;69.40
975;DHT22;6115;49.296;10.602;2023-05-07T02:12:55;11.20;70.30
975;DHT22;6115;49.296;10.602;2023-05-07T02:18:15;11.00;71.20
975;DHT22;6115;49.296;10.602;2023-05-07T02:23:16;11.20;71.10
975;DHT22;6115;49.296;10.602;2023-05-07T02:28:16;11.20;71.20
975;DHT22;6115;49.296;10.602;2023-05-07T02:33:17;11.10;71.70
975;DHT22;6115;49.296;10.602;2023-05-07T02:38:17;11.00;72.00
975;DHT22;6115;49.296;10.602;2023-05-07T02:43:18;11.00;71.90
975;DHT22;6115;49.296;10.602;2023-05-07T02:48:18;11.00;72.00
975;DHT22;6115;49.296;10.602;2023-05-07T02:53:19;11.00;72.10
975;DHT22;6115;49.296;10.602;2023-05-07T02:58:20;10.90;72.20
975;DHT22;6115;49.296;10.602;2023-05-07T03:03:20;10.90;72.20
975;DHT22;6115;49.296;10.602;2023-05-07T03:08:21;11.00;71.90
975;DHT22;6115;49.296;10.602;2023-05-07T03:13:22;10.80;72.30
975;DHT22;6115;49.296;10.602;2023-05-07T03:18:22;10.70;72.60
975;DHT22;6115;49.296;10.602;2023-05-07T03:23:23;10.80;72.30
975;DHT22;6115;49.296;10.602;2023-05-07T03:28:23;10.80;71.90
975;DHT22;6115;49.296;10.602;2023-05-07T03:33:24;10.70;72.00
975;DHT22;6115;49.296;10.602;2023-05-07T03:38:24;10.70;71.90
975;DHT22;6115;49.296;10.602;2023-05-07T03:43:25;10.80;71.80
975;DHT22;6115;49.296;10.602;2023-05-07T03:48:25;10.90;71.50
975;DHT22;6115;49.296;10.602;2023-05-07T03:53:26;10.80;71.40
975;DHT22;6115;49.296;10.602;2023-05-07T03:58:26;10.80;71.90
975;DHT22;6115;49.296;10.602;2023-05-07T04:03:27;10.90;72.60
975;DHT22;6115;49.296;10.602;2023-05-07T04:08:28;10.80;72.70
975;DHT22;6115;49.296;10.602;2023-05-07T04:13:29;10.80;73.00
975;DHT22;6115;49.296;10.602;2023-05-07T04:18:30;10.70;73.30
975;DHT22;6115;49.296;10.602;2023-05-07T04:23:30;10.80;73.40
975;DHT22;6115;49.296;10.602;2023-05-07T04:28:31;11.00;72.70
975;DHT22;6115;49.296;10.602;2023-05-07T04:33:32;11.00;72.80
975;DHT22;6115;49.296;10.602;2023-05-07T04:38:32;11.00;72.80
975;DHT22;6115;49.296;10.602;2023-05-07T04:43:33;11.00;73.30
975;DHT22;6115;49.296;10.602;2023-05-07T04:48:34;11.10;73.60
975;DHT22;6115;49.296;10.602;2023-05-07T04:53:34;11.10;74.00
975;DHT22;6115;49.296;10.602;2023-05-07T04:58:35;11.30;74.00
975;DHT22;6115;49.296;10.602;2023-05-07T05:03:35;11.40;74.20
975;DHT22;6115;49.296;10.602;2023-05-07T05:08:36;11.50;74.60
975;DHT22;6115;49.296;10.602;2023-05-07T05:13:36;11.60;74.30
975;DHT22;6115;49.296;10.602;2023-05-07T05:18:37;11.70;74.60
975;DHT22;6115;49.296;10.602;2023-05-07T05:23:38;11.70;74.80
975;DHT22;6115;49.296;10.602;2023-05-07T05:28:39;12.00;74.50
975;DHT22;6115;49.296;10.602;2023-05-07T05:33:39;12.20;74.40
975;DHT22;6115;49.296;10.602;2023-05-07T05:38:40;12.40;74.30
975;DHT22;6115;49.296;10.602;2023-05-07T05:43:41;12.50;73.70
975;DHT22;6115;49.296;10.602;2023-05-07T05:48:41;12.60;73.50
975;DHT22;6115;49.296;10.602;2023-05-07T05:53:42;12.80;73.90
975;DHT22;6115;49.296;10.602;2023-05-07T05:58:42;13.10;73.90
975;DHT22;6115;49.296;10.602;2023-05-07T06:03:43;13.40;73.20
975;DHT22;6115;49.296;10.602;2023-05-07T06:08:44;13.60;72.70
975;DHT22;6115;49.296;10.602;2023-05-07T06:13:44;13.80;71.20
975;DHT22;6115;49.296;10.602;2023-05-07T06:18:45;14.20;69.80
975;DHT22;6115;49.296;10.602;2023-05-07T06:23:46;14.30;68.70
975;DHT22;6115;49.296;10.602;2023-05-07T06:28:47;14.50;68.70
975;DHT22;6115;49.296;10.602;2023-05-07T06:33:48;14.70;66.90
975;DHT22;6115;49.296;10.602;2023-05-07T06:38:49;14.80;66.50
975;DHT22;6115;49.296;10.602;2023-05-07T06:43:50;15.00;66.60
975;DHT22;6115;49.296;10.602;2023-05-07T06:48:50;15.20;66.40
975;DHT22;6115;49.296;10.602;2023-05-07T06:53:52;15.40;64.50
975;DHT22;6115;49.296;10.602;2023-05-07T06:58:52;15.50;63.80
975;DHT22;6115;49.296;10.602;2023-05-07T07:03:53;15.70;63.00
975;DHT22;6115;49.296;10.602;2023-05-07T07:08:54;15.90;62.50
975;DHT22;6115;49.296;10.602;2023-05-07T07:13:55;16.10;61.10
975;DHT22;6115;49.296;10.602;2023-05-07T07:18:55;16.30;61.20
975;DHT22;6115;49.296;10.602;2023-05-07T07:23:56;16.40;60.50
975;DHT22;6115;49.296;10.602;2023-05-07T07:28:56;16.60;59.60
975;DHT22;6115;49.296;10.602;2023-05-07T07:33:57;16.90;59.70
975;DHT22;6115;49.296;10.602;2023-05-07T07:38:57;17.10;58.60
975;DHT22;6115;49.296;10.602;2023-05-07T07:43:58;17.10;58.50
975;DHT22;6115;49.296;10.602;2023-05-07T07:48:58;17.10;58.70
975;DHT22;6115;49.296;10.602;2023-05-07T07:54:00;17.30;58.60
975;DHT22;6115;49.296;10.602;2023-05-07T07:59:02;17.30;58.30
975;DHT22;6115;49.296;10.602;2023-05-07T08:04:03;17.40;58.20
975;DHT22;6115;49.296;10.602;2023-05-07T08:09:05;17.60;58.70
975;DHT22;6115;49.296;10.602;2023-05-07T08:14:06;18.00;57.50
975;DHT22;6115;49.296;10.602;2023-05-07T08:19:06;18.20;57.50
975;DHT22;6115;49.296;10.602;2023-05-07T08:24:07;18.40;56.40
975;DHT22;6115;49.296;10.602;2023-05-07T08:29:07;18.50;56.60
975;DHT22;6115;49.296;10.602;2023-05-07T08:34:08;18.40;56.10
975;DHT22;6115;49.296;10.602;2023-05-07T08:39:08;18.70;56.60
975;DHT22;6115;49.296;10.602;2023-05-07T08:44:12;19.10;55.50
975;DHT22;6115;49.296;10.602;2023-05-07T08:49:14;19.20;55.10
975;DHT22;6115;49.296;10.602;2023-05-07T08:54:16;19.30;54.60
975;DHT22;6115;49.296;10.602;2023-05-07T08:59:18;19.30;55.60
975;DHT22;6115;49.296;10.602;2023-05-07T09:04:18;19.40;54.00
975;DHT22;6115;49.296;10.602;2023-05-07T09:09:19;19.40;54.00
975;DHT22;6115;49.296;10.602;2023-05-07T09:14:21;19.60;53.80
975;DHT22;6115;49.296;10.602;2023-05-07T09:19:23;19.70;54.30
975;DHT22;6115;49.296;10.602;2023-05-07T09:24:24;20.00;54.50
975;DHT22;6115;49.296;10.602;2023-05-07T09:29:25;20.10;53.90
975;DHT22;6115;49.296;10.602;2023-05-07T09:34:26;20.40;53.20
975;DHT22;6115;49.296;10.602;2023-05-07T09:39:26;20.70;53.30
975;DHT22;6115;49.296;10.602;2023-05-07T09:44:38;21.10;53.00
975;DHT22;6115;49.296;10.602;2023-05-07T09:49:39;21.50;52.20
975;DHT22;6115;49.296;10.602;2023-05-07T09:54:43;21.80;51.40
975;DHT22;6115;49.296;10.602;2023-05-07T09:59:45;21.70;51.00
975;DHT22;6115;49.296;10.602;2023-05-07T10:04:46;21.90;49.30
975;DHT22;6115;49.296;10.602;2023-05-07T10:09:49;22.20;47.70
975;DHT22;6115;49.296;10.602;2023-05-07T10:14:52;22.70;48.10
975;DHT22;6115;49.296;10.602;2023-05-07T10:19:53;22.90;46.40
975;DHT22;6115;49.296;10.602;2023-05-07T10:24:56;23.20;47.80
975;DHT22;6115;49.296;10.602;2023-05-07T10:30:26;23.50;44.80
975;DHT22;6115;49.296;10.602;2023-05-07T10:35:31;23.30;45.00
975;DHT22;6115;49.296;10.602;2023-05-07T10:40:33;23.30;45.40
975;DHT22;6115;49.296;10.602;2023-05-07T10:45:33;23.40;44.50
975;DHT22;6115;49.296;10.602;2023-05-07T10:50:35;23.60;42.30
975;DHT22;6115;49.296;10.602;2023-05-07T10:55:35;24.10;43.10
975;DHT22;6115;49.296;10.602;2023-05-07T11:05:38;24.60;42.10
975;DHT22;6115;49.296;10.602;2023-05-07T11:15:50;24.80;39.30
975;DHT22;6115;49.296;10.602;2023-05-07T11:20:53;24.70;38.50
975;DHT22;6115;49.296;10.602;2023-05-07T11:26:07;24.90;40.10
975;DHT22;6115;49.296;10.602;2023-05-07T11:31:10;25.00;38.20
975;DHT22;6115;49.296;10.602;2023-05-07T11:36:11;25.10;36.20
975;DHT22;6115;49.296;10.602;2023-05-07T11:41:12;25.20;36.60
975;DHT22;6115;49.296;10.602;2023-05-07T11:46:13;25.10;37.60
975;DHT22;6115;49.296;10.602;2023-05-07T11:51:19;25.30;36.50
975;DHT22;6115;49.296;10.602;2023-05-07T11:56:19;25.50;34.70
975;DHT22;6115;49.296;10.602;2023-05-07T12:01:20;25.20;38.30
975;DHT22;6115;49.296;10.602;2023-05-07T12:06:21;25.20;37.00
975;DHT22;6115;49.296;10.602;2023-05-07T12:11:23;25.20;37.20
975;DHT22;6115;49.296;10.602;2023-05-07T12:16:25;25.10;35.30
975;DHT22;6115;49.296;10.602;2023-05-07T12:21:26;25.20;35.40
975;DHT22;6115;49.296;10.602;2023-05-07T12:26:27;25.30;36.30
975;DHT22;6115;49.296;10.602;2023-05-07T12:31:27;25.60;35.70
975;DHT22;6115;49.296;10.602;2023-05-07T12:36:36;25.80;35.80
975;DHT22;6115;49.296;10.602;2023-05-07T12:41:57;26.00;35.90
975;DHT22;6115;49.296;10.602;2023-05-07T12:47:01;26.00;35.10
975;DHT22;6115;49.296;10.602;2023-05-07T12:52:02;26.10;35.00
975;DHT22;6115;49.296;10.602;2023-05-07T12:57:09;26.20;33.60
975;DHT22;6115;49.296;10.602;2023-05-07T13:02:10;26.00;32.30
975;DHT22;6115;49.296;10.602;2023-05-07T13:07:10;26.10;30.80
975;DHT22;6115;49.296;10.602;2023-05-07T13:12:11;26.50;32.40
975;DHT22;6115;49.296;10.602;2023-05-07T13:17:11;26.40;29.70
975;DHT22;6115;49.296;10.602;2023-05-07T13:22:12;26.80;28.40
975;DHT22;6115;49.296;10.602;2023-05-07T13:27:12;26.90;28.30
975;DHT22;6115;49.296;10.602;2023-05-07T13:32:13;26.80;29.20
975;DHT22;6115;49.296;10.602;2023-05-07T13:37:13;27.10;32.00
975;DHT22;6115;49.296;10.602;2023-05-07T13:42:14;27.10;30.40
975;DHT22;6115;49.296;10.602;2023-05-07T13:47:15;27.40;29.30
975;DHT22;6115;49.296;10.602;2023-05-07T13:52:16;27.20;28.90
975;DHT22;6115;49.296;10.602;2023-05-07T13:57:16;27.00;29.00
975;DHT22;6115;49.296;10.602;2023-05-07T14:02:17;26.90;29.60
975;DHT22;6115;49.296;10.602;2023-05-07T14:07:17;27.00;30.40
975;DHT22;6115;49.296;10.602;2023-05-07T14:12:18;27.00;29.60
975;DHT22;6115;49.296;10.602;2023-05-07T14:17:19;27.50;29.40
975;DHT22;6115;49.296;10.602;2023-05-07T14:22:21;27.50;27.80
975;DHT22;6115;49.296;10.602;2023-05-07T14:27:22;27.30;30.00
975;DHT22;6115;49.296;10.602;2023-05-07T14:32:23;26.90;28.40
975;DHT22;6115;49.296;10.602;2023-05-07T14:37:23;26.80;28.60
975;DHT22;6115;49.296;10.602;2023-05-07T14:42:24;27.00;28.30
975;DHT22;6115;49.296;10.602;2023-05-07T14:47:25;27.10;29.10
975;DHT22;6115;49.296;10.602;2023-05-07T14:52:26;27.20;29.00
975;DHT22;6115;49.296;10.602;2023-05-07T14:57:27;27.00;28.70
975;DHT22;6115;49.296;10.602;2023-05-07T15:02:28;27.00;28.00
975;DHT22;6115;49.296;10.602;2023-05-07T15:07:29;26.90;30.20
975;DHT22;6115;49.296;10.602;2023-05-07T15:12:29;26.10;34.00
975;DHT22;6115;49.296;10.602;2023-05-07T15:17:30;25.80;33.90
975;DHT22;6115;49.296;10.602;2023-05-07T15:22:30;25.80;34.40
975;DHT22;6115;49.296;10.602;2023-05-07T15:27:31;25.90;35.90
975;DHT22;6115;49.296;10.602;2023-05-07T15:32:32;25.70;34.50
975;DHT22;6115;49.296;10.602;2023-05-07T15:37:32;25.80;34.30
975;DHT22;6115;49.296;10.602;2023-05-07T15:42:33;26.00;33.80
975;DHT22;6115;49.296;10.602;2023-05-07T15:47:34;26.00;33.80
975;DHT22;6115;49.296;10.602;2023-05-07T15:52:35;26.00;33.30
975;DHT22;6115;49.296;10.602;2023-05-07T15:57:35;25.80;33.80
975;DHT22;6115;49.296;10.602;2023-05-07T16:02:36;25.60;33.60
975;DHT22;6115;49.296;10.602;2023-05-07T16:07:37;25.40;33.70
975;DHT22;6115;49.296;10.602;2023-05-07T16:12:37;25.20;33.10
975;DHT22;6115;49.296;10.602;2023-05-07T16:17:38;25.00;35.30
975;DHT22;6115;49.296;10.602;2023-05-07T16:22:38;24.70;35.00
975;DHT22;6115;49.296;10.602;2023-05-07T16:27:39;24.50;35.40
975;DHT22;6115;49.296;10.602;2023-05-07T16:32:40;24.20;35.60
975;DHT22;6115;49.296;10.602;2023-05-07T16:37:40;24.10;37.10
975;DHT22;6115;49.296;10.602;2023-05-07T16:42:41;23.90;36.80
975;DHT22;6115;49.296;10.602;2023-05-07T16:47:42;23.70;37.80
975;DHT22;6115;49.296;10.602;2023-05-07T16:52:42;23.70;39.10
975;DHT22;6115;49.296;10.602;2023-05-07T16:57:43;23.40;40.40
975;DHT22;6115;49.296;10.602;2023-05-07T17:02:43;23.20;40.10
975;DHT22;6115;49.296;10.602;2023-05-07T17:07:45;22.90;41.10
975;DHT22;6115;49.296;10.602;2023-05-07T17:12:45;22.90;42.10
975;DHT22;6115;49.296;10.602;2023-05-07T17:17:46;22.70;41.50
975;DHT22;6115;49.296;10.602;2023-05-07T17:22:46;22.60;41.40
975;DHT22;6115;49.296;10.602;2023-05-07T17:27:47;22.50;42.30
975;DHT22;6115;49.296;10.602;2023-05-07T17:32:48;22.40;42.70
975;DHT22;6115;49.296;10.602;2023-05-07T17:37:48;22.20;42.60
975;DHT22;6115;49.296;10.602;2023-05-07T17:42:51;22.00;42.40
975;DHT22;6115;49.296;10.602;2023-05-07T17:47:52;22.00;42.40
975;DHT22;6115;49.296;10.602;2023-05-07T17:52:53;22.00;42.40
975;DHT22;6115;49.296;10.602;2023-05-07T17:57:53;21.80;42.60
975;DHT22;6115;49.296;10.602;2023-05-07T18:02:54;21.70;43.00
975;DHT22;6115;49.296;10.602;2023-05-07T18:07:55;21.60;43.30
975;DHT22;6115;49.296;10.602;2023-05-07T18:12:55;21.50;43.70
975;DHT22;6115;49.296;10.602;2023-05-07T18:17:58;21.30;44.20
975;DHT22;6115;49.296;10.602;2023-05-07T18:22:59;21.10;44.60
975;DHT22;6115;49.296;10.602;2023-05-07T18:28:00;21.00;44.80
975;DHT22;6115;49.296;10.602;2023-05-07T18:33:00;20.90;45.00
975;DHT22;6115;49.296;10.602;2023-05-07T18:38:01;20.80;45.10
975;DHT22;6115;49.296;10.602;2023-05-07T18:43:01;20.60;45.50
975;DHT22;6115;49.296;10.602;2023-05-07T18:48:06;20.50;45.80
975;DHT22;6115;49.296;10.602;2023-05-07T18:53:06;20.40;45.70
975;DHT22;6115;49.296;10.602;2023-05-07T18:58:07;20.30;45.60
975;DHT22;6115;49.296;10.602;2023-05-07T19:03:08;20.20;45.50
975;DHT22;6115;49.296;10.602;2023-05-07T19:08:10;20.10;45.40
975;DHT22;6115;49.296;10.602;2023-05-07T19:13:11;20.10;46.00
975;DHT22;6115;49.296;10.602;2023-05-07T19:18:11;20.00;45.50
975;DHT22;6115;49.296;10.602;2023-05-07T19:23:12;19.90;45.80
975;DHT22;6115;49.296;10.602;2023-05-07T19:28:12;19.80;45.60
975;DHT22;6115;49.296;10.602;2023-05-07T19:33:13;19.70;45.70
975;DHT22;6115;49.296;10.602;2023-05-07T19:38:13;19.60;45.90
975;DHT22;6115;49.296;10.602;2023-05-07T19:43:14;19.40;46.30
975;DHT22;6115;49.296;10.602;2023-05-07T19:48:14;19.40;46.10
975;DHT22;6115;49.296;10.602;2023-05-07T19:53:15;19.30;46.30
975;DHT22;6115;49.296;10.602;2023-05-07T19:58:15;19.20;46.50
975;DHT22;6115;49.296;10.602;2023-05-07T20:03:16;19.10;46.40
975;DHT22;6115;49.296;10.602;2023-05-07T20:08:17;19.10;46.40
975;DHT22;6115;49.296;10.602;2023-05-07T20:13:18;19.00;46.90
975;DHT22;6115;49.296;10.602;2023-05-07T20:18:18;19.00;46.70
975;DHT22;6115;49.296;10.602;2023-05-07T20:23:19;19.00;46.80
975;DHT22;6115;49.296;10.602;2023-05-07T20:28:20;18.70;47.40
975;DHT22;6115;49.296;10.602;2023-05-07T20:33:20;18.80;47.20
975;DHT22;6115;49.296;10.602;2023-05-07T20:38:21;18.90;46.60
975;DHT22;6115;49.296;10.602;2023-05-07T20:43:21;18.80;46.80
975;DHT22;6115;49.296;10.602;2023-05-07T20:48:22;18.80;46.60
975;DHT22;6115;49.296;10.602;2023-05-07T20:53:23;18.80;46.10
975;DHT22;6115;49.296;10.602;2023-05-07T20:58:24;18.70;46.50
975;DHT22;6115;49.296;10.602;2023-05-07T21:03:25;18.60;47.30
975;DHT22;6115;49.296;10.602;2023-05-07T21:08:26;18.50;47.60
975;DHT22;6115;49.296;10.602;2023-05-07T21:13:26;18.40;47.80
975;DHT22;6115;49.296;10.602;2023-05-07T21:18:27;18.40;47.90
975;DHT22;6115;49.296;10.602;2023-05-07T21:23:30;18.50;47.60
975;DHT22;6115;49.296;10.602;2023-05-07T21:28:30;18.50;47.70
975;DHT22;6115;49.296;10.602;2023-05-07T21:33:31;18.40;48.30
975;DHT22;6115;49.296;10.602;2023-05-07T21:38:31;18.30;48.60
975;DHT22;6115;49.296;10.602;2023-05-07T21:43:32;18.10;48.40
975;DHT22;6115;49.296;10.602;2023-05-07T21:48:32;18.00;48.30
975;DHT22;6115;49.296;10.602;2023-05-07T21:53:33;17.80;48.80
975;DHT22;6115;49.296;10.602;2023-05-07T21:58:34;17.70;49.00
975;DHT22;6115;49.296;10.602;2023-05-07T22:03:34;17.60;49.50
975;DHT22;6115;49.296;10.602;2023-05-07T22:08:35;17.50;49.70
975;DHT22;6115;49.296;10.602;2023-05-07T22:13:36;17.40;49.90
975;DHT22;6115;49.296;10.602;2023-05-07T22:18:36;17.40;50.00
975;DHT22;6115;49.296;10.602;2023-05-07T22:23:37;17.30;50.20
975;DHT22;6115;49.296;10.602;2023-05-07T22:28:37;17.20;50.40
975;DHT22;6115;49.296;10.602;2023-05-07T22:33:38;17.10;50.90
975;DHT22;6115;49.296;10.602;2023-05-07T22:38:38;17.00;50.90
975;DHT22;6115;49.296;10.602;2023-05-07T22:43:39;17.00;51.00
975;DHT22;6115;49.296;10.602;2023-05-07T22:48:39;17.00;51.00
975;DHT22;6115;49.296;10.602;2023-05-07T22:53:40;17.00;51.50
975;DHT22;6115;49.296;10.602;2023-05-07T22:58:40;17.00;51.10
975;DHT22;6115;49.296;10.602;2023-05-07T23:03:41;16.90;51.50
975;DHT22;6115;49.296;10.602;2023-05-07T23:08:42;16.80;51.80
975;DHT22;6115;49.296;10.602;2023-05-07T23:13:42;16.80;51.80
975;DHT22;6115;49.296;10.602;2023-05-07T23:18:43;16.80;51.90
975;DHT22;6115;49.296;10.602;2023-05-07T23:23:43;16.80;51.90
975;DHT22;6115;49.296;10.602;2023-05-07T23:28:44;16.70;52.30
975;DHT22;6115;49.296;10.602;2023-05-07T23:33:45;16.60;52.60
975;DHT22;6115;49.296;10.602;2023-05-07T23:38:45;16.60;52.40
975;DHT22;6115;49.296;10.602;2023-05-07T23:43:46;16.60;52.30
975;DHT22;6115;49.296;10.602;2023-05-07T23:48:46;16.60;52.20
975;DHT22;6115;49.296;10.602;2023-05-07T23:53:47;16.50;52.40
975;DHT22;6115;49.296;10.602;2023-05-07T23:58:47;16.60;51.70
